Williamstown, Missouri
Current Conditions -  °F | °C
As of 4:35 AM on Friday 21 Nov 2014 (Local Time) from KEOK Reporting Station
Clear Clear  
Wind Chill:   Ceiling: Unl
Heat Index: 16°   Visibility: 10mi
Dew Point: 10°   Wind: 8mph
Humidity: 79%   Direction: 100°E
Pressure: 30.36"   Gusts: NA
Location:  40.24°N, 91.8°W
Report Text: KEOK 211035Z AUTO 10007KT 10SM CLR M09/M12 A3036 RMK AO2
Loading
Personal Weather Stations






























Interactive Weather Map New forecast layout! Learn more

10-Day Weather Forecast

Advertisements
Track Severe Weather on mobile